sensor_id;sensor_type;location;lat;lon;timestamp;pressure;altitude;pressure_sealevel;temperature;humidity
63808;BME280;49961;43.970;22.868;2023-02-28T00:00:58;102370.34;;;7.25;100.00
63808;BME280;49961;43.970;22.868;2023-02-28T00:01:58;102373.09;;;7.25;100.00
63808;BME280;49961;43.970;22.868;2023-02-28T00:02:59;102378.25;;;7.26;100.00
63808;BME280;49961;43.970;22.868;2023-02-28T00:04:00;102225.03;;;6.35;100.00
63808;BME280;49961;43.970;22.868;2023-02-28T00:05:00;102379.88;;;7.31;100.00
63808;BME280;49961;43.970;22.868;2023-02-28T00:06:05;102372.78;;;7.30;100.00
63808;BME280;49961;43.970;22.868;2023-02-28T00:07:06;102319.47;;;7.00;100.00
63808;BME280;49961;43.970;22.868;2023-02-28T00:08:07;102380.34;;;7.33;100.00
63808;BME280;49961;43.970;22.868;2023-02-28T00:09:07;102376.78;;;7.32;100.00
63808;BME280;49961;43.970;22.868;2023-02-28T00:10:11;102368.81;;;7.27;100.00
63808;BME280;49961;43.970;22.868;2023-02-28T00:11:13;102386.22;;;7.31;100.00
63808;BME280;49961;43.970;22.868;2023-02-28T00:12:14;102384.25;;;7.32;100.00
63808;BME280;49961;43.970;22.868;2023-02-28T00:13:14;102379.94;;;7.34;100.00
63808;BME280;49961;43.970;22.868;2023-02-28T00:14:15;102389.44;;;7.37;100.00
63808;BME280;49961;43.970;22.868;2023-02-28T00:15:16;102291.50;;;6.75;100.00
63808;BME280;49961;43.970;22.868;2023-02-28T00:16:19;102387.84;;;7.36;100.00
63808;BME280;49961;43.970;22.868;2023-02-28T00:17:20;102407.53;;;7.34;100.00
63808;BME280;49961;43.970;22.868;2023-02-28T00:18:23;102390.25;;;7.37;100.00
63808;BME280;49961;43.970;22.868;2023-02-28T00:19:24;102387.56;;;7.41;100.00
63808;BME280;49961;43.970;22.868;2023-02-28T00:20:24;102389.09;;;7.38;100.00
63808;BME280;49961;43.970;22.868;2023-02-28T00:21:25;102390.25;;;7.37;100.00
63808;BME280;49961;43.970;22.868;2023-02-28T00:22:25;102386.28;;;7.35;100.00
63808;BME280;49961;43.970;22.868;2023-02-28T00:23:26;102390.97;;;7.34;100.00
63808;BME280;49961;43.970;22.868;2023-02-28T00:24:27;102338.00;;;6.99;100.00
63808;BME280;49961;43.970;22.868;2023-02-28T00:25:27;102383.47;;;7.31;100.00
63808;BME280;49961;43.970;22.868;2023-02-28T00:26:28;102399.19;;;7.31;100.00
63808;BME280;49961;43.970;22.868;2023-02-28T00:27:28;102399.56;;;7.29;100.00
63808;BME280;49961;43.970;22.868;2023-02-28T00:28:29;102340.53;;;6.89;100.00
63808;BME280;49961;43.970;22.868;2023-02-28T00:29:30;102395.16;;;7.25;100.00
63808;BME280;49961;43.970;22.868;2023-02-28T00:30:30;102397.13;;;7.24;100.00
63808;BME280;49961;43.970;22.868;2023-02-28T00:31:30;102403.78;;;7.23;100.00
63808;BME280;49961;43.970;22.868;2023-02-28T00:32:31;102407.72;;;7.22;100.00
63808;BME280;49961;43.970;22.868;2023-02-28T00:33:32;102353.81;;;6.83;100.00
63808;BME280;49961;43.970;22.868;2023-02-28T00:34:32;102414.81;;;7.23;100.00
63808;BME280;49961;43.970;22.868;2023-02-28T00:35:38;102409.34;;;7.27;100.00
63808;BME280;49961;43.970;22.868;2023-02-28T00:36:38;102418.03;;;7.25;100.00
63808;BME280;49961;43.970;22.868;2023-02-28T00:37:39;102345.94;;;6.82;100.00
63808;BME280;49961;43.970;22.868;2023-02-28T00:38:40;102416.63;;;7.35;100.00
63808;BME280;49961;43.970;22.868;2023-02-28T00:39:41;102413.91;;;7.38;100.00
63808;BME280;49961;43.970;22.868;2023-02-28T00:40:41;102365.91;;;6.98;100.00
63808;BME280;49961;43.970;22.868;2023-02-28T00:41:42;102417.78;;;7.34;100.00
63808;BME280;49961;43.970;22.868;2023-02-28T00:42:42;102414.22;;;7.33;100.00
63808;BME280;49961;43.970;22.868;2023-02-28T00:43:42;102282.38;;;6.52;100.00
63808;BME280;49961;43.970;22.868;2023-02-28T00:44:43;102422.53;;;7.37;100.00
63808;BME280;49961;43.970;22.868;2023-02-28T00:45:43;102423.00;;;7.39;100.00
63808;BME280;49961;43.970;22.868;2023-02-28T00:46:44;102412.69;;;7.36;100.00
63808;BME280;49961;43.970;22.868;2023-02-28T00:47:44;102418.25;;;7.39;100.00
63808;BME280;49961;43.970;22.868;2023-02-28T00:48:46;102424.16;;;7.38;100.00
63808;BME280;49961;43.970;22.868;2023-02-28T00:49:47;102414.72;;;7.39;100.00
63808;BME280;49961;43.970;22.868;2023-02-28T00:50:50;102420.41;;;7.27;100.00
63808;BME280;49961;43.970;22.868;2023-02-28T00:51:51;102418.44;;;7.27;100.00
63808;BME280;49961;43.970;22.868;2023-02-28T00:52:52;102416.34;;;7.21;100.00
63808;BME280;49961;43.970;22.868;2023-02-28T00:53:53;102427.13;;;7.07;100.00
63808;BME280;49961;43.970;22.868;2023-02-28T00:54:54;102421.19;;;6.86;100.00
63808;BME280;49961;43.970;22.868;2023-02-28T00:55:54;102420.34;;;6.82;100.00
63808;BME280;49961;43.970;22.868;2023-02-28T00:56:55;102420.41;;;6.85;100.00
63808;BME280;49961;43.970;22.868;2023-02-28T00:57:55;102400.13;;;6.74;100.00
63808;BME280;49961;43.970;22.868;2023-02-28T00:58:55;102425.03;;;6.81;100.00
63808;BME280;49961;43.970;22.868;2023-02-28T00:59:56;102419.25;;;6.67;100.00
63808;BME280;49961;43.970;22.868;2023-02-28T01:00:56;102422.94;;;6.75;100.00
63808;BME280;49961;43.970;22.868;2023-02-28T01:01:57;102406.56;;;6.63;100.00
63808;BME280;49961;43.970;22.868;2023-02-28T01:02:57;102420.84;;;6.68;100.00
63808;BME280;49961;43.970;22.868;2023-02-28T01:03:58;102421.56;;;6.65;100.00
63808;BME280;49961;43.970;22.868;2023-02-28T01:04:58;102424.97;;;6.59;100.00
63808;BME280;49961;43.970;22.868;2023-02-28T01:05:59;102417.91;;;6.42;100.00
63808;BME280;49961;43.970;22.868;2023-02-28T01:06:59;102419.81;;;6.38;100.00
63808;BME280;49961;43.970;22.868;2023-02-28T01:07:59;102418.72;;;6.43;100.00
63808;BME280;49961;43.970;22.868;2023-02-28T01:09:00;102408.22;;;6.29;100.00
63808;BME280;49961;43.970;22.868;2023-02-28T01:10:00;102418.38;;;6.44;100.00
63808;BME280;49961;43.970;22.868;2023-02-28T01:11:11;102413.28;;;6.46;100.00
63808;BME280;49961;43.970;22.868;2023-02-28T01:12:11;102429.81;;;6.46;100.00
63808;BME280;49961;43.970;22.868;2023-02-28T01:13:12;102413.00;;;6.51;100.00
63808;BME280;49961;43.970;22.868;2023-02-28T01:14:15;102416.50;;;6.48;100.00
63808;BME280;49961;43.970;22.868;2023-02-28T01:15:16;102402.50;;;6.38;100.00
63808;BME280;49961;43.970;22.868;2023-02-28T01:16:16;102411.34;;;6.47;100.00
63808;BME280;49961;43.970;22.868;2023-02-28T01:17:17;102419.59;;;6.47;100.00
63808;BME280;49961;43.970;22.868;2023-02-28T01:18:18;102438.53;;;6.48;100.00
63808;BME280;49961;43.970;22.868;2023-02-28T01:19:18;102420.56;;;6.54;100.00
63808;BME280;49961;43.970;22.868;2023-02-28T01:20:19;102440.44;;;6.63;100.00
63808;BME280;49961;43.970;22.868;2023-02-28T01:21:20;102418.81;;;6.65;100.00
63808;BME280;49961;43.970;22.868;2023-02-28T01:22:21;102237.38;;;5.50;100.00
63808;BME280;49961;43.970;22.868;2023-02-28T01:23:23;102418.88;;;6.69;100.00
63808;BME280;49961;43.970;22.868;2023-02-28T01:24:23;102418.88;;;6.69;100.00
63808;BME280;49961;43.970;22.868;2023-02-28T01:25:24;102420.94;;;6.72;100.00
63808;BME280;49961;43.970;22.868;2023-02-28T01:26:24;102415.06;;;6.73;100.00
63808;BME280;49961;43.970;22.868;2023-02-28T01:27:25;102400.69;;;6.64;100.00
63808;BME280;49961;43.970;22.868;2023-02-28T01:28:26;102418.66;;;6.77;100.00
63808;BME280;49961;43.970;22.868;2023-02-28T01:29:27;102422.22;;;6.78;100.00
63808;BME280;49961;43.970;22.868;2023-02-28T01:30:27;102426.06;;;6.73;100.00
63808;BME280;49961;43.970;22.868;2023-02-28T01:31:28;102422.88;;;6.71;100.00
63808;BME280;49961;43.970;22.868;2023-02-28T01:32:28;102424.47;;;6.72;100.00
63808;BME280;49961;43.970;22.868;2023-02-28T01:33:29;102394.19;;;6.53;100.00
63808;BME280;49961;43.970;22.868;2023-02-28T01:34:29;102409.97;;;6.56;100.00
63808;BME280;49961;43.970;22.868;2023-02-28T01:35:35;102426.16;;;6.77;100.00
63808;BME280;49961;43.970;22.868;2023-02-28T01:36:36;102431.72;;;6.80;100.00
63808;BME280;49961;43.970;22.868;2023-02-28T01:37:36;102423.88;;;6.82;100.00
63808;BME280;49961;43.970;22.868;2023-02-28T01:38:37;102430.56;;;6.81;100.00
63808;BME280;49961;43.970;22.868;2023-02-28T01:39:38;102331.97;;;6.14;100.00
63808;BME280;49961;43.970;22.868;2023-02-28T01:40:38;102426.16;;;6.77;100.00
63808;BME280;49961;43.970;22.868;2023-02-28T01:41:39;102426.94;;;6.77;100.00
63808;BME280;49961;43.970;22.868;2023-02-28T01:42:40;102422.22;;;6.78;100.00
63808;BME280;49961;43.970;22.868;2023-02-28T01:46:01;102426.16;;;6.77;100.00
63808;BME280;49961;43.970;22.868;2023-02-28T01:47:02;102423.97;;;6.67;100.00
63808;BME280;49961;43.970;22.868;2023-02-28T01:48:05;102429.19;;;6.72;100.00
63808;BME280;49961;43.970;22.868;2023-02-28T01:49:13;102423.75;;;6.75;100.00
63808;BME280;49961;43.970;22.868;2023-02-28T01:50:19;102423.03;;;6.78;100.00
63808;BME280;49961;43.970;22.868;2023-02-28T01:51:26;102428.16;;;6.80;100.00
63808;BME280;49961;43.970;22.868;2023-02-28T01:52:29;102395.03;;;6.57;100.00
63808;BME280;49961;43.970;22.868;2023-02-28T01:53:37;102427.81;;;6.81;100.00
63808;BME280;49961;43.970;22.868;2023-02-28T01:54:39;102425.47;;;6.83;100.00
63808;BME280;49961;43.970;22.868;2023-02-28T01:55:40;102355.38;;;6.43;100.00
63808;BME280;49961;43.970;22.868;2023-02-28T01:56:48;102446.81;;;6.86;100.00
63808;BME280;49961;43.970;22.868;2023-02-28T01:57:52;102427.50;;;6.86;100.00
63808;BME280;49961;43.970;22.868;2023-02-28T01:58:55;102406.69;;;6.70;100.00
63808;BME280;49961;43.970;22.868;2023-02-28T01:59:59;102287.78;;;5.88;100.00
63808;BME280;49961;43.970;22.868;2023-02-28T02:01:01;102428.81;;;6.92;100.00
63808;BME280;49961;43.970;22.868;2023-02-28T02:02:03;102429.63;;;6.93;100.00
63808;BME280;49961;43.970;22.868;2023-02-28T02:03:07;102421.34;;;6.93;100.00
63808;BME280;49961;43.970;22.868;2023-02-28T02:04:09;102422.94;;;6.94;100.00
63808;BME280;49961;43.970;22.868;2023-02-28T02:05:12;102425.03;;;7.00;100.00
63808;BME280;49961;43.970;22.868;2023-02-28T02:06:14;102431.72;;;6.99;100.00
63808;BME280;49961;43.970;22.868;2023-02-28T02:07:14;102422.56;;;6.95;100.00
63808;BME280;49961;43.970;22.868;2023-02-28T02:08:19;102426.84;;;6.93;100.00
63808;BME280;49961;43.970;22.868;2023-02-28T02:09:20;102431.56;;;6.92;100.00
63808;BME280;49961;43.970;22.868;2023-02-28T02:10:27;102427.50;;;6.86;100.00
63808;BME280;49961;43.970;22.868;2023-02-28T02:11:29;102351.97;;;6.30;100.00
63808;BME280;49961;43.970;22.868;2023-02-28T02:15:05;102438.09;;;6.84;100.00
63808;BME280;49961;43.970;22.868;2023-02-28T02:17:19;102430.56;;;6.81;100.00
63808;BME280;49961;43.970;22.868;2023-02-28T02:25:22;102379.38;;;6.61;100.00
63808;BME280;49961;43.970;22.868;2023-02-28T02:36:14;102426.84;;;6.93;100.00
63808;BME280;49961;43.970;22.868;2023-02-28T02:38:46;102425.75;;;6.97;100.00
63808;BME280;49961;43.970;22.868;2023-02-28T02:40:32;102441.22;;;7.02;100.00
63808;BME280;49961;43.970;22.868;2023-02-28T02:42:36;102425.75;;;6.97;100.00
63808;BME280;49961;43.970;22.868;2023-02-28T02:45:06;102432.44;;;6.96;100.00
63808;BME280;49961;43.970;22.868;2023-02-28T02:46:14;102340.44;;;6.44;100.00
63808;BME280;49961;43.970;22.868;2023-02-28T02:47:20;102422.69;;;7.02;100.00
63808;BME280;49961;43.970;22.868;2023-02-28T02:48:26;102422.34;;;7.04;100.00
63808;BME280;49961;43.970;22.868;2023-02-28T02:49:31;102325.09;;;6.43;100.00
63808;BME280;49961;43.970;22.868;2023-02-28T02:50:43;102414.44;;;7.02;100.00
63808;BME280;49961;43.970;22.868;2023-02-28T02:51:46;102404.22;;;7.03;100.00
63808;BME280;49961;43.970;22.868;2023-02-28T02:52:53;102410.50;;;7.03;100.00
63808;BME280;49961;43.970;22.868;2023-02-28T02:54:02;102397.88;;;7.02;100.00
63808;BME280;49961;43.970;22.868;2023-02-28T02:55:05;102396.97;;;6.95;100.00
63808;BME280;49961;43.970;22.868;2023-02-28T02:56:07;102393.59;;;7.05;100.00
63808;BME280;49961;43.970;22.868;2023-02-28T02:57:17;102309.88;;;6.49;100.00
63808;BME280;49961;43.970;22.868;2023-02-28T02:58:27;102263.28;;;6.21;100.00
63808;BME280;49961;43.970;22.868;2023-02-28T02:59:32;102400.28;;;7.04;100.00
63808;BME280;49961;43.970;22.868;2023-02-28T03:00:46;102406.16;;;7.02;100.00
63808;BME280;49961;43.970;22.868;2023-02-28T03:01:51;102314.72;;;6.36;100.00
63808;BME280;49961;43.970;22.868;2023-02-28T03:02:54;102418.22;;;6.94;100.00
63808;BME280;49961;43.970;22.868;2023-02-28T03:04:06;102417.47;;;6.97;100.00
63808;BME280;49961;43.970;22.868;2023-02-28T03:05:33;102410.25;;;6.89;100.00
63808;BME280;49961;43.970;22.868;2023-02-28T03:06:35;102423.75;;;6.94;100.00
63808;BME280;49961;43.970;22.868;2023-02-28T03:07:36;102425.63;;;6.90;100.00
63808;BME280;49961;43.970;22.868;2023-02-28T03:08:37;102431.56;;;6.92;100.00
63808;BME280;49961;43.970;22.868;2023-02-28T03:09:38;102428.44;;;6.94;100.00
63808;BME280;49961;43.970;22.868;2023-02-28T03:10:44;102384.81;;;6.58;100.00
63808;BME280;49961;43.970;22.868;2023-02-28T03:11:46;102440.00;;;6.99;100.00
63808;BME280;49961;43.970;22.868;2023-02-28T03:12:53;102368.66;;;6.56;100.00
63808;BME280;49961;43.970;22.868;2023-02-28T03:14:30;102432.94;;;7.02;100.00
63808;BME280;49961;43.970;22.868;2023-02-28T03:18:08;102349.16;;;6.46;100.00
63808;BME280;49961;43.970;22.868;2023-02-28T03:20:52;102462.28;;;7.13;100.00
63808;BME280;49961;43.970;22.868;2023-02-28T03:25:54;102469.34;;;7.11;100.00
63808;BME280;49961;43.970;22.868;2023-02-28T03:27:11;102468.56;;;7.10;100.00
63808;BME280;49961;43.970;22.868;2023-02-28T03:29:34;102472.91;;;7.11;100.00
63808;BME280;49961;43.970;22.868;2023-02-28T03:32:00;102472.19;;;7.14;100.00
63808;BME280;49961;43.970;22.868;2023-02-28T03:33:08;102460.34;;;6.95;100.00
63808;BME280;49961;43.970;22.868;2023-02-28T03:34:24;102472.59;;;7.16;100.00
63808;BME280;49961;43.970;22.868;2023-02-28T03:35:37;102351.41;;;6.40;100.00
63808;BME280;49961;43.970;22.868;2023-02-28T03:36:43;102495.09;;;7.18;100.00
63808;BME280;49961;43.970;22.868;2023-02-28T03:37:46;102339.31;;;6.26;100.00
63808;BME280;49961;43.970;22.868;2023-02-28T03:38:55;102383.16;;;6.53;100.00
63808;BME280;49961;43.970;22.868;2023-02-28T03:40:00;102476.97;;;6.98;100.00
63808;BME280;49961;43.970;22.868;2023-02-28T03:41:15;102484.44;;;6.98;100.00
63808;BME280;49961;43.970;22.868;2023-02-28T03:42:23;102479.28;;;6.96;100.00
63808;BME280;49961;43.970;22.868;2023-02-28T03:43:31;102483.28;;;6.99;100.00
63808;BME280;49961;43.970;22.868;2023-02-28T03:44:41;102482.13;;;7.00;100.00
63808;BME280;49961;43.970;22.868;2023-02-28T03:45:43;102357.63;;;6.18;100.00
63808;BME280;49961;43.970;22.868;2023-02-28T03:46:55;102485.16;;;6.95;100.00
63808;BME280;49961;43.970;22.868;2023-02-28T03:49:27;102481.09;;;6.89;100.00
63808;BME280;49961;43.970;22.868;2023-02-28T03:50:40;102485.31;;;6.83;100.00
63808;BME280;49961;43.970;22.868;2023-02-28T03:51:41;102485.00;;;6.69;100.00
63808;BME280;49961;43.970;22.868;2023-02-28T03:52:47;102492.09;;;6.70;100.00
63808;BME280;49961;43.970;22.868;2023-02-28T03:53:57;102490.16;;;6.70;100.00
63808;BME280;49961;43.970;22.868;2023-02-28T03:55:02;102484.00;;;6.77;100.00
63808;BME280;49961;43.970;22.868;2023-02-28T03:56:12;102493.16;;;6.81;100.00
63808;BME280;49961;43.970;22.868;2023-02-28T03:57:38;102498.75;;;6.84;100.00
63808;BME280;49961;43.970;22.868;2023-02-28T03:59:17;102492.78;;;6.82;100.00
63808;BME280;49961;43.970;22.868;2023-02-28T04:00:27;102490.53;;;6.88;100.00
63808;BME280;49961;43.970;22.868;2023-02-28T04:01:42;102498.44;;;6.89;100.00
63808;BME280;49961;43.970;22.868;2023-02-28T04:02:43;102500.41;;;6.89;100.00
63808;BME280;49961;43.970;22.868;2023-02-28T04:03:43;102499.69;;;6.92;100.00
63808;BME280;49961;43.970;22.868;2023-02-28T04:04:44;102502.50;;;6.95;100.00
63808;BME280;49961;43.970;22.868;2023-02-28T04:05:54;102372.47;;;6.14;100.00
63808;BME280;49961;43.970;22.868;2023-02-28T04:07:02;102496.13;;;6.91;100.00
63808;BME280;49961;43.970;22.868;2023-02-28T04:08:05;102496.34;;;6.83;100.00
63808;BME280;49961;43.970;22.868;2023-02-28T04:09:08;102470.06;;;6.70;100.00
63808;BME280;49961;43.970;22.868;2023-02-28T04:10:11;102513.16;;;6.78;100.00
63808;BME280;49961;43.970;22.868;2023-02-28T04:12:38;102472.63;;;6.78;100.00
63808;BME280;49961;43.970;22.868;2023-02-28T04:13:38;102495.31;;;6.91;100.00
63808;BME280;49961;43.970;22.868;2023-02-28T04:14:39;102493.72;;;6.90;100.00
63808;BME280;49961;43.970;22.868;2023-02-28T04:15:40;102487.72;;;6.84;100.00
63808;BME280;49961;43.970;22.868;2023-02-28T04:16:41;102495.13;;;6.99;100.00
63808;BME280;49961;43.970;22.868;2023-02-28T04:17:42;102505.75;;;7.01;100.00
63808;BME280;49961;43.970;22.868;2023-02-28T04:18:42;102502.28;;;7.04;100.00
63808;BME280;49961;43.970;22.868;2023-02-28T04:19:45;102506.63;;;7.05;100.00
63808;BME280;49961;43.970;22.868;2023-02-28T04:20:46;102507.72;;;7.00;100.00
63808;BME280;49961;43.970;22.868;2023-02-28T04:21:49;102513.06;;;6.93;100.00
63808;BME280;49961;43.970;22.868;2023-02-28T04:22:50;102507.06;;;6.88;100.00
63808;BME280;49961;43.970;22.868;2023-02-28T04:23:50;102514.53;;;6.87;100.00
63808;BME280;49961;43.970;22.868;2023-02-28T04:24:51;102508.94;;;6.84;100.00
63808;BME280;49961;43.970;22.868;2023-02-28T04:25:55;102511.72;;;6.84;100.00
63808;BME280;49961;43.970;22.868;2023-02-28T04:26:57;102520.25;;;6.79;100.00
63808;BME280;49961;43.970;22.868;2023-02-28T04:27:57;102516.72;;;6.78;100.00
63808;BME280;49961;43.970;22.868;2023-02-28T04:28:58;102511.41;;;6.70;100.00
63808;BME280;49961;43.970;22.868;2023-02-28T04:29:59;102511.59;;;6.61;100.00
63808;BME280;49961;43.970;22.868;2023-02-28T04:31:03;102518.81;;;6.66;100.00
63808;BME280;49961;43.970;22.868;2023-02-28T04:32:04;102510.53;;;6.66;100.00
63808;BME280;49961;43.970;22.868;2023-02-28T04:33:05;102520.91;;;6.72;100.00
63808;BME280;49961;43.970;22.868;2023-02-28T04:34:05;102515.84;;;6.74;100.00
63808;BME280;49961;43.970;22.868;2023-02-28T04:35:06;102523.28;;;6.74;100.00
63808;BME280;49961;43.970;22.868;2023-02-28T04:36:08;102514.53;;;6.68;100.00
63808;BME280;49961;43.970;22.868;2023-02-28T04:37:08;102490.97;;;6.36;100.00
63808;BME280;49961;43.970;22.868;2023-02-28T04:38:09;102504.94;;;6.62;100.00
63808;BME280;49961;43.970;22.868;2023-02-28T04:39:09;102513.09;;;6.74;100.00
63808;BME280;49961;43.970;22.868;2023-02-28T04:40:10;102476.44;;;6.55;100.00
63808;BME280;49961;43.970;22.868;2023-02-28T04:41:14;102498.72;;;6.65;100.00
63808;BME280;49961;43.970;22.868;2023-02-28T04:42:15;102513.38;;;6.69;100.00
63808;BME280;49961;43.970;22.868;2023-02-28T04:43:15;102504.56;;;6.64;100.00
63808;BME280;49961;43.970;22.868;2023-02-28T04:44:16;102506.97;;;6.65;100.00
63808;BME280;49961;43.970;22.868;2023-02-28T04:45:17;102502.69;;;6.68;100.00
63808;BME280;49961;43.970;22.868;2023-02-28T04:46:17;102487.16;;;6.60;100.00
63808;BME280;49961;43.970;22.868;2023-02-28T04:47:18;102514.81;;;6.63;100.00
63808;BME280;49961;43.970;22.868;2023-02-28T04:48:19;102504.22;;;6.65;100.00
63808;BME280;49961;43.970;22.868;2023-02-28T04:49:19;102511.69;;;6.65;100.00
63808;BME280;49961;43.970;22.868;2023-02-28T04:50:19;102505.75;;;6.63;100.00
63808;BME280;49961;43.970;22.868;2023-02-28T04:51:20;102473.06;;;6.27;100.00
63808;BME280;49961;43.970;22.868;2023-02-28T04:52:20;102513.84;;;6.56;100.00
63808;BME280;49961;43.970;22.868;2023-02-28T04:53:21;102518.56;;;6.55;100.00
63808;BME280;49961;43.970;22.868;2023-02-28T04:54:21;102509.59;;;6.58;100.00
63808;BME280;49961;43.970;22.868;2023-02-28T04:55:22;102502.31;;;6.50;100.00
63808;BME280;49961;43.970;22.868;2023-02-28T04:56:22;102522.13;;;6.56;100.00
63808;BME280;49961;43.970;22.868;2023-02-28T04:57:23;102513.69;;;6.49;100.00
63808;BME280;49961;43.970;22.868;2023-02-28T04:58:24;102517.03;;;6.58;100.00
63808;BME280;49961;43.970;22.868;2023-02-28T04:59:24;102427.28;;;6.03;100.00
63808;BME280;49961;43.970;22.868;2023-02-28T05:00:25;102518.69;;;6.62;100.00
63808;BME280;49961;43.970;22.868;2023-02-28T05:01:28;102523.22;;;6.70;100.00
63808;BME280;49961;43.970;22.868;2023-02-28T05:02:29;102521.00;;;6.76;100.00
63808;BME280;49961;43.970;22.868;2023-02-28T05:03:29;102524.53;;;6.76;100.00
63808;BME280;49961;43.970;22.868;2023-02-28T05:04:30;102524.38;;;6.69;100.00
63808;BME280;49961;43.970;22.868;2023-02-28T05:05:34;102519.66;;;6.70;100.00
63808;BME280;49961;43.970;22.868;2023-02-28T05:06:34;102523.66;;;6.72;100.00
63808;BME280;49961;43.970;22.868;2023-02-28T05:07:34;102521.78;;;6.76;100.00
63808;BME280;49961;43.970;22.868;2023-02-28T05:08:35;102522.13;;;6.75;100.00
63808;BME280;49961;43.970;22.868;2023-02-28T05:09:35;102521.34;;;6.74;100.00
63808;BME280;49961;43.970;22.868;2023-02-28T05:10:36;102493.75;;;6.55;100.00
63808;BME280;49961;43.970;22.868;2023-02-28T05:11:36;102511.91;;;6.75;100.00
63808;BME280;49961;43.970;22.868;2023-02-28T05:12:38;102519.47;;;6.78;100.00
63808;BME280;49961;43.970;22.868;2023-02-28T05:13:39;102427.34;;;6.22;100.00
63808;BME280;49961;43.970;22.868;2023-02-28T05:14:39;102380.78;;;5.98;100.00
63808;BME280;49961;43.970;22.868;2023-02-28T05:15:39;102531.88;;;6.88;100.00
63808;BME280;49961;43.970;22.868;2023-02-28T05:16:40;102525.19;;;6.89;100.00
63808;BME280;49961;43.970;22.868;2023-02-28T05:17:41;102520.84;;;6.88;100.00
63808;BME280;49961;43.970;22.868;2023-02-28T05:18:41;102534.94;;;7.02;100.00
63808;BME280;49961;43.970;22.868;2023-02-28T05:19:42;102541.03;;;6.92;100.00
63808;BME280;49961;43.970;22.868;2023-02-28T05:20:42;102533.47;;;6.89;100.00
63808;BME280;49961;43.970;22.868;2023-02-28T05:21:54;102540.34;;;6.98;100.00
63808;BME280;49961;43.970;22.868;2023-02-28T05:22:56;102517.50;;;6.79;100.00
63808;BME280;49961;43.970;22.868;2023-02-28T05:24:00;102539.22;;;6.99;100.00
63808;BME280;49961;43.970;22.868;2023-02-28T05:25:01;102546.97;;;6.94;100.00
63808;BME280;49961;43.970;22.868;2023-02-28T05:26:01;102543.25;;;6.86;100.00
63808;BME280;49961;43.970;22.868;2023-02-28T05:27:02;102540.94;;;6.88;100.00
63808;BME280;49961;43.970;22.868;2023-02-28T05:28:03;102525.50;;;6.84;100.00
63808;BME280;49961;43.970;22.868;2023-02-28T05:29:04;102484.00;;;6.42;100.00
63808;BME280;49961;43.970;22.868;2023-02-28T05:30:06;102541.69;;;7.04;100.00
63808;BME280;49961;43.970;22.868;2023-02-28T05:31:10;102553.56;;;7.08;100.00
63808;BME280;49961;43.970;22.868;2023-02-28T05:32:11;102561.13;;;7.11;100.00
63808;BME280;49961;43.970;22.868;2023-02-28T05:33:12;102554.38;;;7.09;100.00
63808;BME280;49961;43.970;22.868;2023-02-28T05:34:13;102447.47;;;6.26;100.00
63808;BME280;49961;43.970;22.868;2023-02-28T05:35:15;102556.31;;;7.08;100.00
63808;BME280;49961;43.970;22.868;2023-02-28T05:36:16;102566.78;;;7.18;100.00
63808;BME280;49961;43.970;22.868;2023-02-28T05:37:16;102546.69;;;7.18;100.00
63808;BME280;49961;43.970;22.868;2023-02-28T05:38:17;102560.56;;;7.21;100.00
63808;BME280;49961;43.970;22.868;2023-02-28T05:39:18;102555.38;;;7.20;100.00
63808;BME280;49961;43.970;22.868;2023-02-28T05:40:18;102567.88;;;7.14;100.00
63808;BME280;49961;43.970;22.868;2023-02-28T05:41:20;102564.25;;;7.10;100.00
63808;BME280;49961;43.970;22.868;2023-02-28T05:42:21;102533.19;;;6.94;100.00
63808;BME280;49961;43.970;22.868;2023-02-28T05:43:22;102421.91;;;6.26;100.00
63808;BME280;49961;43.970;22.868;2023-02-28T05:44:23;102560.84;;;7.16;100.00
63808;BME280;49961;43.970;22.868;2023-02-28T05:45:23;102568.47;;;7.23;100.00
63808;BME280;49961;43.970;22.868;2023-02-28T05:46:23;102566.38;;;7.35;100.00
63808;BME280;49961;43.970;22.868;2023-02-28T05:47:24;102429.88;;;6.50;100.00
63808;BME280;49961;43.970;22.868;2023-02-28T05:48:25;102599.31;;;7.47;100.00
63808;BME280;49961;43.970;22.868;2023-02-28T05:49:26;102573.81;;;7.54;100.00
63808;BME280;49961;43.970;22.868;2023-02-28T05:50:26;102576.63;;;7.57;100.00
63808;BME280;49961;43.970;22.868;2023-02-28T05:51:27;102592.84;;;7.59;100.00
63808;BME280;49961;43.970;22.868;2023-02-28T05:52:28;102573.59;;;7.62;100.00
63808;BME280;49961;43.970;22.868;2023-02-28T05:53:30;102570.81;;;7.62;100.00
63808;BME280;49961;43.970;22.868;2023-02-28T05:54:32;102556.91;;;7.55;100.00
63808;BME280;49961;43.970;22.868;2023-02-28T05:55:32;102552.34;;;7.44;100.00
63808;BME280;49961;43.970;22.868;2023-02-28T05:56:34;102558.44;;;7.53;100.00
63808;BME280;49961;43.970;22.868;2023-02-28T05:57:35;102565.91;;;7.52;100.00
63808;BME280;49961;43.970;22.868;2023-02-28T05:58:35;102566.03;;;7.59;100.00
63808;BME280;49961;43.970;22.868;2023-02-28T05:59:36;102499.47;;;7.19;100.00
63808;BME280;49961;43.970;22.868;2023-02-28T06:00:39;102556.31;;;7.65;100.00
63808;BME280;49961;43.970;22.868;2023-02-28T06:01:42;102523.31;;;7.31;100.00
63808;BME280;49961;43.970;22.868;2023-02-28T06:02:48;102571.53;;;7.78;100.00
63808;BME280;49961;43.970;22.868;2023-02-28T06:03:48;102568.03;;;7.81;100.00
63808;BME280;49961;43.970;22.868;2023-02-28T06:04:49;102541.72;;;7.65;100.00
63808;BME280;49961;43.970;22.868;2023-02-28T06:05:49;102581.41;;;8.02;100.00